| time (UTC) | temp F | wind direction | speed MPH | gust MPH | rain 1hr in | rain 24hr in | rain mn in | humidity % | barometer mb |
| 20260508080708 | 45 | 319 | 0.0 | 0.0 | 0.00 | 0.00 | 0.00 | 86 | 1029.1 |
| 20260508080703 | 45 | 320 | 0.0 | 0.0 | 0.00 | 0.23 | 0.00 | 86 | 1012.5 |
| 20260508080207 | 46 | 320 | 0.0 | 0.0 | 0.00 | 0.00 | 0.00 | 85 | 1029.1 |
| 20260508080204 | 46 | 320 | 0.0 | 5.0 | 0.00 | 0.23 | 0.00 | 85 | 1012.4 |
| 20260508075703 | 46 | 315 | 0.0 | 2.0 | 0.00 | 0.00 | 0.00 | 85 | 1029.3 |
| 20260508075204 | 46 | 330 | 0.0 | 0.0 | 0.00 | 0.23 | 0.00 | 85 | 1012.3 |
| 20260508075200 | 46 | 330 | 0.0 | 0.0 | 0.00 | 0.00 | 0.00 | 85 | 1029.1 |
| 20260508074703 | 46 | 327 | 0.0 | 3.0 | 0.00 | 0.23 | 0.00 | 84 | 1012.4 |
| 20260508074657 | 46 | 330 | 0.0 | 0.0 | 0.00 | 0.00 | 0.00 | 84 | 1029.0 |
| 20260508074154 | 46 | 303 | 0.0 | 3.0 | 0.00 | 0.00 | 0.00 | 84 | 1028.9 |
| 20260508073703 | 46 | 315 | 0.0 | 3.0 | 0.00 | 0.23 | 0.00 | 84 | 1012.2 |
| 20260508073651 | 46 | 304 | 0.0 | 0.0 | 0.00 | 0.00 | 0.00 | 84 | 1028.7 |
| 20260508073203 | 47 | 304 | 0.0 | 7.0 | 0.00 | 0.23 | 0.00 | 83 | 1012.1 |
| 20260508073149 | 47 | 304 | 0.0 | 0.0 | 0.00 | 0.00 | 0.00 | 83 | 1028.7 |
| 20260508072703 | 47 | 340 | 1.0 | 7.0 | 0.00 | 0.23 | 0.00 | 82 | 1012.2 |
| 20260508072645 | 47 | 334 | 0.0 | 7.0 | 0.00 | 0.00 | 0.00 | 82 | 1028.7 |
| 20260508072203 | 47 | 314 | 1.0 | 5.0 | 0.00 | 0.23 | 0.00 | 81 | 1012.2 |
| 20260508072142 | 47 | 306 | 0.0 | 3.0 | 0.00 | 0.00 | 0.00 | 82 | 1028.7 |
| 20260508071706 | 47 | 307 | 0.0 | 3.0 | 0.00 | 0.23 | 0.00 | 81 | 1011.8 |
| 20260508071639 | 47 | 307 | 0.0 | 3.0 | 0.00 | 0.00 | 0.00 | 81 | 1028.5 |
| 20260508071138 | 48 | 297 | 0.0 | 3.0 | 0.00 | 0.00 | 0.00 | 81 | 1028.8 |
| 20260508070704 | 48 | 311 | 0.0 | 5.0 | 0.00 | 0.23 | 0.00 | 80 | 1012.0 |
| 20260508070635 | 48 | 311 | 0.0 | 3.0 | 0.00 | 0.00 | 0.00 | 80 | 1028.6 |
| 20260508070204 | 48 | 310 | 0.0 | 12.0 | 0.00 | 0.23 | 0.00 | 79 | 1011.8 |
| 20260508070133 | 48 | 309 | 0.0 | 0.0 | 0.00 | 0.00 | 0.00 | 79 | 1028.4 |
| 20260508065704 | 49 | 316 | 1.0 | 7.0 | 0.00 | 0.23 | 0.00 | 78 | 1011.9 |
| 20260508065630 | 49 | 325 | 0.0 | 3.0 | 0.00 | 0.00 | 0.00 | 79 | 1028.5 |
| 20260508065128 | 49 | 307 | 0.0 | 7.0 | 0.00 | 0.00 | 0.00 | 78 | 1028.5 |
| 20260508064703 | 49 | 334 | 1.0 | 7.0 | 0.00 | 0.24 | 0.00 | 78 | 1011.7 |
| 20260508064626 | 49 | 318 | 1.0 | 5.0 | 0.00 | 0.00 | 0.00 | 78 | 1028.4 |
| 20260508064203 | 49 | 321 | 0.0 | 13.0 | 0.00 | 0.24 | 0.00 | 76 | 1011.5 |
| 20260508064124 | 50 | 321 | 0.0 | 2.0 | 0.00 | 0.00 | 0.00 | 76 | 1028.2 |
| 20260508063703 | 50 | 300 | 4.0 | 12.0 | 0.00 | 0.24 | 0.00 | 75 | 1011.5 |
| 20260508063621 | 50 | 295 | 6.0 | 11.0 | 0.00 | 0.00 | 0.00 | 75 | 1028.3 |
| 20260508063205 | 50 | 298 | 2.0 | 12.0 | 0.00 | 0.27 | 0.00 | 74 | 1011.5 |
| 20260508063119 | 50 | 297 | 3.0 | 7.0 | 0.00 | 0.00 | 0.00 | 74 | 1028.2 |
| 20260508062704 | 51 | 290 | 2.0 | 14.0 | 0.00 | 0.28 | 0.00 | 73 | 1011.2 |
| 20260508062616 | 51 | 323 | 0.0 | 14.0 | 0.00 | 0.00 | 0.00 | 73 | 1027.9 |
| 20260508062204 | 51 | 332 | 2.0 | 14.0 | 0.00 | 0.30 | 0.00 | 73 | 1011.4 |
| 20260508062112 | 51 | 306 | 1.0 | 7.0 | 0.00 | 0.00 | 0.00 | 73 | 1028.1 |
| 20260508061704 | 51 | 324 | 0.0 | 9.0 | 0.00 | 0.30 | 0.00 | 73 | 1011.3 |
| 20260508061610 | 51 | 329 | 0.0 | 3.0 | 0.00 | 0.00 | 0.00 | 73 | 1028.1 |
| 20260508061205 | 51 | 353 | 2.0 | 9.0 | 0.00 | 0.30 | 0.00 | 72 | 1011.3 |
| 20260508061108 | 51 | 354 | 4.0 | 10.0 | 0.00 | 0.00 | 0.00 | 72 | 1027.9 |
| 20260508060704 | 51 | 356 | 4.0 | 13.0 | 0.00 | 0.30 | 0.00 | 72 | 1011.2 |
| 20260508060604 | 51 | 11 | 2.0 | 13.0 | 0.00 | 0.00 | 0.00 | 72 | 1027.9 |
| 20260508060204 | 52 | 317 | 3.0 | 24.0 | 0.00 | 0.30 | 0.00 | 71 | 1011.2 |
| 20260508055704 | 51 | 327 | 5.0 | 24.0 | 0.00 | 0.30 | 0.00 | 72 | 1011.0 |
| 20260508055556 | 51 | 345 | 2.0 | 19.0 | 0.00 | 0.00 | 0.00 | 73 | 1027.7 |
| 20260508055204 | 51 | 332 | 1.0 | 13.0 | 0.00 | 0.30 | 0.00 | 75 | 1011.0 |
| 20260508055053 | 51 | 327 | 0.0 | 3.0 | 0.00 | 0.00 | 0.00 | 75 | 1027.7 |
| 20260508054704 | 50 | 8 | 2.0 | 13.0 | 0.00 | 0.30 | 0.00 | 78 | 1011.0 |
| 20260508054549 | 50 | 9 | 3.0 | 13.0 | 0.00 | 0.00 | 0.00 | 79 | 1027.7 |
| 20260508054204 | 49 | 298 | 1.0 | 7.0 | 0.00 | 0.35 | 0.00 | 83 | 1010.8 |
| 20260508054047 | 49 | 291 | 0.0 | 0.0 | 0.00 | 0.00 | 0.00 | 83 | 1027.4 |
| 20260508053703 | 49 | 300 | 0.0 | 0.0 | 0.00 | 0.36 | 0.00 | 87 | 1010.6 |
| 20260508053543 | 49 | 300 | 0.0 | 0.0 | 0.00 | 0.00 | 0.00 | 87 | 1027.2 |
| 20260508053203 | 49 | 300 | 0.0 | 0.0 | 0.00 | 0.38 | 0.00 | 87 | 1010.5 |
| 20260508053042 | 49 | 300 | 0.0 | 0.0 | 0.00 | 0.00 | 0.00 | 87 | 1027.1 |
| 20260508052703 | 49 | 300 | 0.0 | 0.0 | 0.00 | 0.38 | 0.00 | 87 | 1010.4 |
| 20260508052539 | 49 | 300 | 0.0 | 0.0 | 0.00 | 0.00 | 0.00 | 87 | 1027.1 |
| 20260508052204 | 48 | 300 | 0.0 | 0.0 | 0.00 | 0.38 | 0.00 | 88 | 1010.2 |
| 20260508052035 | 48 | 300 | 0.0 | 0.0 | 0.00 | 0.00 | 0.00 | 88 | 1026.9 |
| 20260508051704 | 48 | 300 | 0.0 | 0.0 | 0.00 | 0.40 | 0.00 | 88 | 1010.3 |
| 20260508051531 | 48 | 300 | 0.0 | 0.0 | 0.00 | 0.00 | 0.00 | 88 | 1027.0 |
| 20260508051204 | 48 | 300 | 0.0 | 0.0 | 0.00 | 0.41 | 0.00 | 88 | 1010.3 |
| 20260508051027 | 49 | 300 | 0.0 | 0.0 | 0.00 | 0.00 | 0.00 | 88 | 1027.0 |
| 20260508050705 | 48 | 300 | 0.0 | 0.0 | 0.00 | 0.42 | 0.00 | 88 | 1010.2 |
| 20260508050524 | 48 | 300 | 0.0 | 0.0 | 0.00 | 0.00 | 0.00 | 89 | 1026.8 |
| 20260508050204 | 48 | 300 | 0.0 | 0.0 | 0.00 | 0.42 | 0.00 | 89 | 1010.1 |
| 20260508050021 | 48 | 300 | 0.0 | 0.0 | 0.00 | 0.00 | 0.00 | 90 | 1027.0 |
| 20260508045704 | 47 | 300 | 0.0 | 0.0 | 0.23 | 0.44 | 0.00 | 90 | 1010.1 |
| 20260508045517 | 48 | 300 | 0.0 | 0.0 | 0.00 | 0.00 | 0.00 | 90 | 1026.8 |
| 20260508045204 | 48 | 300 | 0.0 | 0.0 | 0.23 | 0.45 | 0.00 | 89 | 1010.1 |
| 20260508045015 | 48 | 300 | 0.0 | 0.0 | 0.00 | 0.00 | 0.00 | 88 | 1026.8 |
| 20260508044513 | 48 | 300 | 0.0 | 0.0 | 0.00 | 0.00 | 0.00 | 88 | 1026.4 |
| 20260508044205 | 49 | 300 | 0.0 | 0.0 | 0.23 | 0.46 | 0.00 | 88 | 1009.8 |
| 20260508044008 | 49 | 300 | 0.0 | 0.0 | 0.00 | 0.00 | 0.00 | 88 | 1026.4 |
| 20260508043703 | 49 | 300 | 0.0 | 0.0 | 0.23 | 0.46 | 0.00 | 88 | 1009.9 |
| 20260508043504 | 49 | 300 | 0.0 | 0.0 | 0.00 | 0.00 | 0.00 | 88 | 1026.3 |
| 20260508043000 | 49 | 300 | 0.0 | 0.0 | 0.00 | 0.00 | 0.00 | 88 | 1026.4 |
| 20260508042704 | 49 | 300 | 0.0 | 0.0 | 0.23 | 0.46 | 0.00 | 87 | 1009.6 |
| 20260508042458 | 49 | 300 | 0.0 | 0.0 | 0.00 | 0.00 | 0.00 | 87 | 1026.2 |
| 20260508041955 | 49 | 300 | 0.0 | 0.0 | 0.00 | 0.00 | 0.00 | 87 | 1026.5 |
| 20260508041705 | 49 | 300 | 0.0 | 0.0 | 0.23 | 0.46 | 0.00 | 86 | 1009.6 |
| 20260508041452 | 49 | 300 | 0.0 | 0.0 | 0.00 | 0.00 | 0.00 | 86 | 1026.3 |
| 20260508040949 | 49 | 299 | 0.0 | 0.0 | 0.00 | 0.00 | 0.00 | 86 | 1026.5 |
| 20260508040707 | 49 | 299 | 0.0 | 0.0 | 0.23 | 0.46 | 0.00 | 87 | 1009.6 |
| 20260508040446 | 49 | 299 | 0.0 | 0.0 | 0.00 | 0.00 | 0.00 | 87 | 1026.1 |
| 20260508040205 | 48 | 300 | 0.0 | 0.0 | 0.23 | 0.46 | 0.00 | 87 | 1009.6 |
| 20260508035944 | 48 | 300 | 0.0 | 0.0 | 0.00 | 0.23 | 0.23 | 87 | 1026.2 |
| 20260508035705 | 48 | 300 | 0.0 | 0.0 | 0.00 | 0.61 | 0.23 | 87 | 1009.5 |
| 20260508035440 | 48 | 300 | 0.0 | 0.0 | 0.00 | 0.23 | 0.23 | 87 | 1026.4 |
| 20260508035203 | 48 | 300 | 0.0 | 0.0 | 0.00 | 0.61 | 0.23 | 88 | 1009.5 |
| 20260508034937 | 48 | 300 | 0.0 | 0.0 | 0.00 | 0.23 | 0.23 | 88 | 1026.2 |
| 20260508034703 | 48 | 300 | 0.0 | 0.0 | 0.00 | 0.61 | 0.23 | 88 | 1009.5 |
| 20260508034435 | 48 | 300 | 0.0 | 0.0 | 0.00 | 0.23 | 0.23 | 88 | 1026.4 |
| 20260508033931 | 47 | 300 | 0.0 | 0.0 | 0.00 | 0.23 | 0.23 | 89 | 1026.1 |
| 20260508033703 | 47 | 300 | 0.0 | 0.0 | 0.00 | 0.61 | 0.23 | 89 | 1009.5 |
| 20260508033429 | 47 | 300 | 0.0 | 0.0 | 0.00 | 0.23 | 0.23 | 89 | 1026.2 |
| 20260508032926 | 47 | 300 | 0.0 | 0.0 | 0.00 | 0.23 | 0.23 | 89 | 1026.3 |
| 20260508032704 | 46 | 300 | 0.0 | 0.0 | 0.00 | 0.61 | 0.23 | 89 | 1009.6 |
| 20260508032424 | 46 | 300 | 0.0 | 0.0 | 0.00 | 0.23 | 0.23 | 89 | 1026.1 |
| 20260508031920 | 47 | 300 | 0.0 | 0.0 | 0.00 | 0.23 | 0.23 | 89 | 1026.0 |
| 20260508031704 | 46 | 300 | 0.0 | 0.0 | 0.00 | 0.61 | 0.23 | 88 | 1009.5 |
| 20260508031418 | 46 | 300 | 0.0 | 0.0 | 0.00 | 0.23 | 0.23 | 88 | 1026.1 |
| 20260508031204 | 46 | 300 | 0.0 | 0.0 | 0.00 | 0.61 | 0.23 | 88 | 1009.6 |
| 20260508030913 | 47 | 300 | 0.0 | 0.0 | 0.00 | 0.23 | 0.23 | 88 | 1026.3 |
| 20260508030704 | 47 | 300 | 0.0 | 0.0 | 0.00 | 0.61 | 0.23 | 87 | 1009.6 |
| 20260508030411 | 46 | 300 | 0.0 | 0.0 | 0.00 | 0.23 | 0.23 | 87 | 1026.4 |
| 20260508030205 | 46 | 300 | 0.0 | 0.0 | 0.00 | 0.61 | 0.23 | 87 | 1009.6 |
| 20260508025908 | 46 | 300 | 0.0 | 0.0 | 0.00 | 0.23 | 0.23 | 87 | 1026.1 |
| 20260508025404 | 47 | 300 | 0.0 | 0.0 | 0.00 | 0.23 | 0.23 | 87 | 1026.2 |
| 20260508025203 | 47 | 300 | 0.0 | 0.0 | 0.00 | 0.61 | 0.23 | 86 | 1009.7 |
| 20260508024901 | 47 | 300 | 0.0 | 0.0 | 0.00 | 0.23 | 0.23 | 86 | 1026.3 |
| 20260508024704 | 47 | 300 | 0.0 | 0.0 | 0.00 | 0.61 | 0.23 | 86 | 1009.6 |
| 20260508024358 | 47 | 300 | 0.0 | 0.0 | 0.00 | 0.23 | 0.23 | 86 | 1026.1 |
| 20260508023855 | 47 | 300 | 0.0 | 0.0 | 0.00 | 0.23 | 0.23 | 85 | 1026.2 |
| 20260508023351 | 47 | 300 | 0.0 | 0.0 | 0.00 | 0.23 | 0.23 | 86 | 1026.1 |
| 20260508023204 | 47 | 300 | 0.0 | 0.0 | 0.00 | 0.61 | 0.23 | 87 | 1009.5 |
| 20260508022848 | 47 | 300 | 0.0 | 0.0 | 0.00 | 0.23 | 0.23 | 87 | 1026.2 |
| 20260508022704 | 47 | 300 | 0.0 | 0.0 | 0.00 | 0.61 | 0.23 | 86 | 1009.5 |
| 20260508022344 | 47 | 300 | 0.0 | 0.0 | 0.00 | 0.23 | 0.23 | 86 | 1026.2 |
| 20260508022205 | 47 | 300 | 0.0 | 0.0 | 0.00 | 0.61 | 0.23 | 86 | 1009.3 |
| 20260508021841 | 47 | 300 | 0.0 | 0.0 | 0.00 | 0.23 | 0.23 | 86 | 1026.1 |
| 20260508021704 | 47 | 300 | 0.0 | 0.0 | 0.00 | 0.61 | 0.23 | 86 | 1009.6 |
| 20260508021337 | 48 | 300 | 0.0 | 0.0 | 0.00 | 0.23 | 0.23 | 86 | 1026.0 |
| 20260508021204 | 48 | 300 | 0.0 | 0.0 | 0.00 | 0.61 | 0.23 | 86 | 1009.3 |
| 20260508020828 | 48 | 300 | 0.0 | 0.0 | 0.00 | 0.23 | 0.23 | 86 | 1025.9 |
| 20260508020704 | 48 | 300 | 0.0 | 0.0 | 0.00 | 0.61 | 0.23 | 85 | 1009.4 |
| 20260508020326 | 48 | 300 | 0.0 | 0.0 | 0.00 | 0.23 | 0.23 | 85 | 1026.2 |
| 20260508020204 | 48 | 300 | 0.0 | 0.0 | 0.00 | 0.61 | 0.23 | 85 | 1009.3 |
| 20260508015823 | 48 | 300 | 0.0 | 0.0 | 0.00 | 0.23 | 0.23 | 84 | 1025.8 |
| 20260508015703 | 48 | 300 | 0.0 | 0.0 | 0.00 | 0.61 | 0.23 | 84 | 1009.3 |
| 20260508015320 | 48 | 300 | 0.0 | 0.0 | 0.00 | 0.23 | 0.23 | 83 | 1026.0 |
| 20260508015203 | 48 | 300 | 0.0 | 0.0 | 0.00 | 0.61 | 0.23 | 83 | 1009.3 |
| 20260508014817 | 48 | 300 | 0.0 | 0.0 | 0.00 | 0.23 | 0.23 | 82 | 1026.0 |
| 20260508014703 | 48 | 300 | 0.0 | 0.0 | 0.00 | 0.61 | 0.23 | 82 | 1009.3 |
| 20260508014314 | 48 | 300 | 0.0 | 0.0 | 0.00 | 0.23 | 0.23 | 82 | 1025.8 |
| 20260508014203 | 48 | 300 | 0.0 | 0.0 | 0.00 | 0.61 | 0.23 | 80 | 1009.1 |
| 20260508013809 | 48 | 300 | 0.0 | 0.0 | 0.00 | 0.23 | 0.23 | 79 | 1025.9 |
| 20260508013703 | 48 | 300 | 0.0 | 0.0 | 0.00 | 0.62 | 0.23 | 79 | 1009.0 |
| 20260508013306 | 49 | 300 | 0.0 | 0.0 | 0.00 | 0.23 | 0.23 | 78 | 1025.9 |
| 20260508013204 | 49 | 300 | 0.0 | 0.0 | 0.00 | 0.63 | 0.23 | 78 | 1009.2 |
| 20260508012803 | 49 | 300 | 0.0 | 0.0 | 0.00 | 0.23 | 0.23 | 77 | 1025.9 |
| 20260508012702 | 49 | 300 | 0.0 | 0.0 | 0.00 | 0.63 | 0.23 | 77 | 1009.0 |
| 20260508012301 | 49 | 300 | 0.0 | 0.0 | 0.00 | 0.23 | 0.23 | 76 | 1025.5 |
| 20260508012203 | 49 | 300 | 0.0 | 0.0 | 0.00 | 0.64 | 0.23 | 76 | 1008.9 |
| 20260508011758 | 50 | 300 | 0.0 | 0.0 | 0.00 | 0.23 | 0.23 | 75 | 1025.5 |
| 20260508011705 | 50 | 300 | 0.0 | 0.0 | 0.00 | 0.64 | 0.23 | 74 | 1008.9 |
| 20260508011256 | 50 | 300 | 0.0 | 0.0 | 0.00 | 0.23 | 0.23 | 74 | 1025.6 |
| 20260508010752 | 50 | 300 | 0.0 | 0.0 | 0.00 | 0.23 | 0.23 | 74 | 1025.5 |
| 20260508010703 | 50 | 300 | 0.0 | 0.0 | 0.00 | 0.69 | 0.23 | 74 | 1008.7 |
| 20260508010251 | 50 | 300 | 0.0 | 0.0 | 0.00 | 0.23 | 0.23 | 73 | 1025.6 |
| 20260508010203 | 50 | 300 | 0.0 | 0.0 | 0.00 | 0.70 | 0.23 | 73 | 1008.7 |
| 20260508005747 | 50 | 300 | 0.0 | 0.0 | 0.00 | 0.23 | 0.23 | 72 | 1025.1 |
| 20260508005704 | 50 | 300 | 0.0 | 0.0 | 0.00 | 0.74 | 0.23 | 71 | 1008.7 |
| 20260508005244 | 50 | 300 | 0.0 | 0.0 | 0.00 | 0.23 | 0.23 | 70 | 1025.3 |
| 20260508005204 | 51 | 300 | 0.0 | 0.0 | 0.00 | 0.74 | 0.23 | 70 | 1008.7 |
| 20260508004739 | 51 | 300 | 0.0 | 0.0 | 0.00 | 0.23 | 0.23 | 69 | 1025.3 |
| 20260508004703 | 51 | 300 | 0.0 | 0.0 | 0.00 | 0.74 | 0.23 | 68 | 1008.7 |
| 20260508004236 | 51 | 300 | 0.0 | 0.0 | 0.00 | 0.23 | 0.23 | 69 | 1025.5 |
| 20260508004203 | 51 | 300 | 0.0 | 0.0 | 0.00 | 0.74 | 0.23 | 70 | 1008.6 |
| 20260508003733 | 51 | 300 | 0.0 | 0.0 | 0.00 | 0.23 | 0.23 | 68 | 1025.3 |
| 20260508003703 | 52 | 300 | 0.0 | 0.0 | 0.00 | 0.74 | 0.23 | 67 | 1008.6 |
| 20260508003230 | 52 | 300 | 0.0 | 0.0 | 0.00 | 0.23 | 0.23 | 66 | 1025.3 |
| 20260508003203 | 52 | 300 | 0.0 | 0.0 | 0.00 | 0.74 | 0.23 | 65 | 1008.6 |
| 20260508002727 | 53 | 300 | 0.0 | 0.0 | 0.00 | 0.23 | 0.23 | 67 | 1025.3 |
| 20260508002703 | 53 | 300 | 0.0 | 0.0 | 0.00 | 0.74 | 0.23 | 67 | 1008.6 |
| 20260508002224 | 53 | 300 | 0.0 | 0.0 | 0.00 | 0.23 | 0.23 | 67 | 1025.2 |
| 20260508002203 | 53 | 300 | 0.0 | 0.0 | 0.00 | 0.74 | 0.23 | 66 | 1008.5 |
| 20260508001720 | 53 | 300 | 0.0 | 0.0 | 0.00 | 0.23 | 0.23 | 65 | 1025.2 |
| 20260508001703 | 54 | 300 | 0.0 | 0.0 | 0.00 | 0.74 | 0.23 | 64 | 1008.4 |
| 20260508001215 | 54 | 300 | 0.0 | 0.0 | 0.00 | 0.23 | 0.23 | 63 | 1025.3 |
| 20260508001203 | 54 | 300 | 0.0 | 0.0 | 0.00 | 0.74 | 0.23 | 62 | 1008.4 |
| 20260508000712 | 55 | 302 | 0.0 | 0.0 | 0.00 | 0.23 | 0.23 | 61 | 1025.3 |
| 20260508000704 | 55 | 302 | 0.0 | 0.0 | 0.00 | 0.74 | 0.23 | 61 | 1008.5 |
| 20260508000212 | 56 | 302 | 0.0 | 0.0 | 0.00 | 0.23 | 0.23 | 58 | 1025.0 |
| 20260508000205 | 56 | 302 | 0.0 | 1.0 | 0.00 | 0.74 | 0.23 | 58 | 1008.4 |
| 20260507235705 | 57 | 307 | 0.0 | 0.0 | 0.00 | 0.23 | 0.23 | 53 | 1025.1 |
| 20260507235703 | 56 | 307 | 0.0 | 0.0 | 0.00 | 0.74 | 0.23 | 52 | 1008.2 |
| 20260507235203 | 56 | 311 | 0.0 | 0.0 | 0.00 | 0.74 | 0.23 | 56 | 1008.4 |
| 20260507234704 | 57 | 263 | 0.0 | 3.0 | 0.00 | 0.74 | 0.23 | 50 | 1008.4 |
| 20260507234700 | 57 | 266 | 0.0 | 0.0 | 0.00 | 0.23 | 0.23 | 53 | 1025.0 |
| 20260507234156 | 57 | 284 | 0.0 | 0.0 | 0.00 | 0.23 | 0.23 | 51 | 1025.1 |
| 20260507233704 | 57 | 286 | 0.0 | 3.0 | 0.00 | 0.74 | 0.23 | 53 | 1008.1 |
| 20260507233653 | 57 | 286 | 0.0 | 3.0 | 0.00 | 0.23 | 0.23 | 54 | 1024.9 |
| 20260507233203 | 58 | 274 | 0.0 | 0.0 | 0.00 | 0.74 | 0.23 | 51 | 1008.2 |
| 20260507233151 | 58 | 274 | 0.0 | 0.0 | 0.00 | 0.23 | 0.23 | 52 | 1024.9 |
| 20260507232703 | 58 | 267 | 0.0 | 0.0 | 0.00 | 0.74 | 0.23 | 49 | 1008.3 |
| 20260507232648 | 58 | 270 | 0.0 | 0.0 | 0.00 | 0.23 | 0.23 | 49 | 1024.8 |
| 20260507232203 | 59 | 298 | 0.0 | 0.0 | 0.00 | 0.74 | 0.23 | 46 | 1008.0 |
| 20260507232145 | 59 | 298 | 0.0 | 0.0 | 0.00 | 0.23 | 0.23 | 47 | 1024.6 |
| 20260507231703 | 59 | 298 | 0.0 | 0.0 | 0.00 | 0.74 | 0.23 | 47 | 1008.1 |
| 20260507231641 | 59 | 298 | 0.0 | 0.0 | 0.00 | 0.23 | 0.23 | 47 | 1024.8 |
| 20260507231133 | 59 | 298 | 0.0 | 0.0 | 0.00 | 0.23 | 0.23 | 45 | 1024.9 |
| 20260507230704 | 59 | 327 | 0.0 | 0.0 | 0.00 | 0.74 | 0.23 | 48 | 1008.2 |
| 20260507230629 | 59 | 327 | 0.0 | 0.0 | 0.00 | 0.23 | 0.23 | 48 | 1024.8 |
| 20260507230203 | 59 | 327 | 0.0 | 0.0 | 0.00 | 0.74 | 0.23 | 47 | 1008.4 |
| 20260507230126 | 59 | 327 | 0.0 | 0.0 | 0.00 | 0.23 | 0.23 | 47 | 1025.1 |
| 20260507225706 | 60 | 320 | 0.0 | 1.0 | 0.00 | 0.74 | 0.23 | 49 | 1008.2 |
| 20260507225620 | 60 | 320 | 0.0 | 0.0 | 0.00 | 0.23 | 0.23 | 49 | 1024.9 |
| 20260507225203 | 61 | 302 | 0.0 | 0.0 | 0.00 | 0.74 | 0.23 | 46 | 1007.9 |
| 20260507225117 | 61 | 302 | 0.0 | 0.0 | 0.00 | 0.23 | 0.23 | 46 | 1024.5 |
| 20260507224704 | 61 | 359 | 0.0 | 0.0 | 0.00 | 0.74 | 0.23 | 46 | 1008.2 |
| 20260507224613 | 61 | 359 | 0.0 | 0.0 | 0.00 | 0.23 | 0.23 | 47 | 1024.8 |
| 20260507224110 | 61 | 359 | 0.0 | 0.0 | 0.00 | 0.23 | 0.23 | 43 | 1024.7 |
| 20260507223705 | 61 | 318 | 0.0 | 3.0 | 0.00 | 0.74 | 0.23 | 44 | 1008.0 |
| 20260507223606 | 61 | 320 | 0.0 | 0.0 | 0.00 | 0.23 | 0.23 | 44 | 1024.7 |
| 20260507223103 | 61 | 322 | 0.0 | 2.0 | 0.00 | 0.23 | 0.23 | 46 | 1024.7 |
| 20260507222703 | 62 | 302 | 0.0 | 5.0 | 0.00 | 0.74 | 0.23 | 46 | 1008.0 |
| 20260507222600 | 62 | 303 | 0.0 | 0.0 | 0.00 | 0.23 | 0.23 | 47 | 1024.7 |
| 20260507222203 | 61 | 351 | 1.0 | 7.0 | 0.00 | 0.74 | 0.23 | 47 | 1008.1 |
| 20260507222056 | 61 | 351 | 0.0 | 5.0 | 0.00 | 0.23 | 0.23 | 48 | 1024.7 |
| 20260507221703 | 62 | 344 | 1.0 | 3.0 | 0.00 | 0.74 | 0.23 | 46 | 1007.9 |
| 20260507221552 | 62 | 342 | 2.0 | 3.0 | 0.00 | 0.23 | 0.23 | 46 | 1024.6 |
| 20260507221203 | 62 | 347 | 1.0 | 7.0 | 0.00 | 0.74 | 0.23 | 47 | 1008.2 |
| 20260507221049 | 62 | 347 | 0.0 | 3.0 | 0.00 | 0.23 | 0.23 | 47 | 1024.8 |
| 20260507220547 | 62 | 1 | 3.0 | 7.0 | 0.00 | 0.23 | 0.23 | 45 | 1024.9 |
| 20260507220205 | 62 | 310 | 0.0 | 5.0 | 0.00 | 0.74 | 0.23 | 45 | 1008.1 |
| 20260507220044 | 62 | 306 | 0.0 | 2.0 | 0.00 | 0.23 | 0.23 | 45 | 1024.8 |
| 20260507215704 | 62 | 285 | 1.0 | 8.0 | 0.00 | 0.74 | 0.23 | 44 | 1008.2 |
| 20260507215540 | 62 | 277 | 1.0 | 3.0 | 0.00 | 0.23 | 0.23 | 44 | 1024.9 |
| 20260507215038 | 62 | 31 | 5.0 | 10.0 | 0.00 | 0.23 | 0.23 | 44 | 1024.7 |
| 20260507214704 | 62 | 3 | 1.0 | 5.0 | 0.00 | 0.74 | 0.23 | 45 | 1008.2 |
| 20260507214535 | 62 | 0 | 2.0 | 3.0 | 0.00 | 0.23 | 0.23 | 45 | 1024.9 |
| 20260507214031 | 62 | 310 | 0.0 | 0.0 | 0.00 | 0.23 | 0.23 | 46 | 1024.9 |
| 20260507213704 | 62 | 328 | 1.0 | 5.0 | 0.00 | 0.74 | 0.23 | 43 | 1008.3 |
| 20260507213527 | 62 | 13 | 0.0 | 5.0 | 0.00 | 0.23 | 0.23 | 42 | 1024.9 |
| 20260507213203 | 62 | 307 | 1.0 | 3.0 | 0.00 | 0.74 | 0.23 | 43 | 1008.2 |
| 20260507213025 | 62 | 282 | 0.0 | 0.0 | 0.00 | 0.23 | 0.23 | 46 | 1025.0 |
| 20260507212703 | 62 | 232 | 0.0 | 1.0 | 0.00 | 0.74 | 0.23 | 45 | 1008.2 |
| 20260507212520 | 62 | 232 | 0.0 | 2.0 | 0.00 | 0.23 | 0.23 | 44 | 1025.0 |
| 20260507212204 | 62 | 303 | 0.0 | 3.0 | 0.00 | 0.74 | 0.23 | 44 | 1008.3 |
| 20260507212017 | 62 | 208 | 0.0 | 0.0 | 0.00 | 0.23 | 0.23 | 43 | 1024.9 |
| 20260507211514 | 61 | 309 | 0.0 | 7.0 | 0.00 | 0.23 | 0.23 | 43 | 1025.0 |
| 20260507211204 | 61 | 338 | 2.0 | 12.0 | 0.00 | 0.74 | 0.23 | 44 | 1008.1 |
| 20260507211005 | 61 | 316 | 6.0 | 10.0 | 0.00 | 0.23 | 0.23 | 43 | 1025.2 |
| 20260507210704 | 60 | 292 | 0.0 | 0.0 | 0.00 | 0.74 | 0.23 | 46 | 1008.1 |
| 20260507210502 | 60 | 319 | 0.0 | 0.0 | 0.00 | 0.23 | 0.23 | 46 | 1024.8 |
| 20260507210203 | 60 | 287 | 0.0 | 12.0 | 0.00 | 0.74 | 0.23 | 48 | 1008.2 |
| 20260507205959 | 61 | 287 | 0.0 | 11.0 | 0.00 | 0.23 | 0.23 | 49 | 1024.8 |
| 20260507205703 | 61 | 315 | 0.0 | 5.0 | 0.00 | 0.74 | 0.23 | 46 | 1008.1 |
| 20260507205456 | 62 | 305 | 0.0 | 5.0 | 0.00 | 0.23 | 0.23 | 44 | 1024.6 |
| 20260507205205 | 62 | 295 | 1.0 | 7.0 | 0.00 | 0.74 | 0.23 | 45 | 1008.1 |
| 20260507204952 | 63 | 333 | 4.0 | 7.0 | 0.00 | 0.23 | 0.23 | 44 | 1024.9 |
| 20260507204448 | 62 | 8 | 0.0 | 5.0 | 0.00 | 0.23 | 0.23 | 45 | 1024.6 |
| 20260507204204 | 62 | 293 | 0.0 | 8.0 | 0.00 | 0.74 | 0.23 | 45 | 1007.7 |
| 20260507203946 | 62 | 315 | 0.0 | 3.0 | 0.00 | 0.23 | 0.23 | 47 | 1024.7 |
| 20260507203703 | 62 | 355 | 1.0 | 8.0 | 0.00 | 0.74 | 0.23 | 43 | 1008.0 |
| 20260507203444 | 62 | 8 | 1.0 | 5.0 | 0.00 | 0.23 | 0.23 | 48 | 1024.7 |
| 20260507203203 | 62 | 345 | 1.0 | 12.0 | 0.00 | 0.74 | 0.23 | 44 | 1007.8 |
| 20260507202940 | 62 | 315 | 0.0 | 11.0 | 0.00 | 0.23 | 0.23 | 46 | 1024.5 |
| 20260507202703 | 62 | 307 | 3.0 | 8.0 | 0.00 | 0.74 | 0.23 | 43 | 1008.0 |
| 20260507202436 | 62 | 308 | 2.0 | 8.0 | 0.00 | 0.23 | 0.23 | 42 | 1024.7 |
| 20260507202203 | 62 | 313 | 1.0 | 9.0 | 0.00 | 0.74 | 0.23 | 46 | 1007.9 |
| 20260507201932 | 63 | 297 | 1.0 | 7.0 | 0.00 | 0.23 | 0.23 | 43 | 1024.6 |
| 20260507201703 | 63 | 312 | 3.0 | 9.0 | 0.00 | 0.74 | 0.23 | 43 | 1008.0 |
| 20260507201427 | 64 | 330 | 0.0 | 3.0 | 0.00 | 0.23 | 0.23 | 43 | 1024.8 |
| 20260507201204 | 64 | 289 | 0.0 | 7.0 | 0.00 | 0.74 | 0.23 | 41 | 1008.1 |
| 20260507200924 | 64 | 297 | 0.0 | 2.0 | 0.00 | 0.23 | 0.23 | 46 | 1024.7 |
| 20260507200704 | 63 | 332 | 2.0 | 8.0 | 0.00 | 0.74 | 0.23 | 44 | 1008.2 |
| 20260507200414 | 64 | 10 | 5.0 | 8.0 | 0.00 | 0.23 | 0.23 | 42 | 1024.9 |
| 20260507195910 | 64 | 334 | 0.0 | 2.0 | 0.00 | 0.23 | 0.23 | 44 | 1024.9 |
| 20260507195704 | 64 | 318 | 1.0 | 8.0 | 0.00 | 0.74 | 0.23 | 42 | 1008.1 |
| 20260507195408 | 63 | 8 | 0.0 | 5.0 | 0.00 | 0.23 | 0.23 | 41 | 1024.7 |
| 20260507195204 | 64 | 16 | 1.0 | 8.0 | 0.00 | 0.74 | 0.23 | 45 | 1008.0 |
| 20260507194905 | 64 | 334 | 0.0 | 5.0 | 0.00 | 0.23 | 0.23 | 44 | 1024.7 |
| 20260507194704 | 65 | 344 | 1.0 | 7.0 | 0.00 | 0.74 | 0.23 | 42 | 1008.1 |
| 20260507194402 | 65 | 304 | 2.0 | 3.0 | 0.00 | 0.23 | 0.23 | 43 | 1024.9 |
| 20260507194204 | 64 | 251 | 0.0 | 5.0 | 0.00 | 0.74 | 0.23 | 42 | 1008.4 |
| 20260507193858 | 63 | 337 | 0.0 | 3.0 | 0.00 | 0.23 | 0.23 | 42 | 1025.0 |
| 20260507193703 | 63 | 234 | 1.0 | 16.0 | 0.00 | 0.74 | 0.23 | 41 | 1008.3 |
| 20260507193355 | 63 | 326 | 8.0 | 16.0 | 0.00 | 0.23 | 0.23 | 43 | 1025.0 |
| 20260507193204 | 63 | 9 | 2.0 | 8.0 | 0.00 | 0.74 | 0.23 | 41 | 1008.4 |
| 20260507192851 | 63 | 302 | 0.0 | 8.0 | 0.00 | 0.23 | 0.23 | 42 | 1025.0 |
| 20260507192704 | 64 | 75 | 2.0 | 7.0 | 0.00 | 0.74 | 0.23 | 41 | 1008.4 |
| 20260507192348 | 64 | 254 | 0.0 | 3.0 | 0.00 | 0.23 | 0.23 | 41 | 1025.0 |
| 20260507192204 | 63 | 302 | 1.0 | 12.0 | 0.00 | 0.74 | 0.23 | 44 | 1008.5 |
| 20260507191844 | 63 | 286 | 0.0 | 7.0 | 0.00 | 0.23 | 0.23 | 41 | 1025.2 |
| 20260507191704 | 63 | 25 | 6.0 | 12.0 | 0.00 | 0.74 | 0.23 | 43 | 1008.6 |
| 20260507191340 | 64 | 297 | 5.0 | 8.0 | 0.00 | 0.23 | 0.23 | 46 | 1025.3 |
| 20260507191204 | 64 | 279 | 2.0 | 12.0 | 0.00 | 0.74 | 0.23 | 49 | 1008.6 |
| 20260507190838 | 63 | 313 | 0.0 | 3.0 | 0.00 | 0.23 | 0.23 | 45 | 1025.5 |
| 20260507190704 | 62 | 294 | 0.0 | 12.0 | 0.00 | 0.74 | 0.23 | 42 | 1008.4 |
| 20260507190336 | 62 | 331 | 5.0 | 7.0 | 0.00 | 0.23 | 0.23 | 43 | 1025.3 |
| 20260507190205 | 62 | 33 | 3.0 | 12.0 | 0.00 | 0.74 | 0.23 | 45 | 1009.0 |
| 20260507185834 | 62 | 314 | 0.0 | 5.0 | 0.00 | 0.23 | 0.23 | 44 | 1025.6 |
| 20260507185705 | 62 | 21 | 4.0 | 14.0 | 0.00 | 0.74 | 0.23 | 47 | 1008.8 |
| 20260507185331 | 62 | 302 | 0.0 | 14.0 | 0.00 | 0.23 | 0.23 | 49 | 1025.5 |
| 20260507185203 | 62 | 11 | 5.0 | 20.0 | 0.00 | 0.74 | 0.23 | 48 | 1009.1 |
| 20260507184828 | 63 | 359 | 10.0 | 18.0 | 0.00 | 0.23 | 0.23 | 46 | 1025.5 |
| 20260507184704 | 63 | 342 | 4.0 | 14.0 | 0.00 | 0.74 | 0.23 | 46 | 1009.0 |
| 20260507184326 | 63 | 282 | 0.0 | 2.0 | 0.00 | 0.23 | 0.23 | 45 | 1025.7 |
| 20260507183822 | 63 | 288 | 0.0 | 2.0 | 0.00 | 0.23 | 0.23 | 49 | 1025.8 |
| 20260507183704 | 62 | 289 | 1.0 | 8.0 | 0.00 | 0.74 | 0.23 | 46 | 1009.1 |
| 20260507183314 | 62 | 283 | 1.0 | 7.0 | 0.00 | 0.23 | 0.23 | 40 | 1025.8 |
| 20260507183203 | 62 | 295 | 1.0 | 17.0 | 0.00 | 0.74 | 0.23 | 47 | 1009.1 |
| 20260507182811 | 62 | 347 | 1.0 | 7.0 | 0.00 | 0.23 | 0.23 | 48 | 1025.7 |
| 20260507182307 | 61 | 28 | 0.0 | 10.0 | 0.00 | 0.23 | 0.23 | 49 | 1025.8 |
| 20260507182207 | 61 | 14 | 5.0 | 14.0 | 0.00 | 0.74 | 0.23 | 50 | 1009.1 |
| 20260507181803 | 62 | 34 | 8.0 | 14.0 | 0.00 | 0.23 | 0.23 | 47 | 1025.6 |
| 20260507181704 | 62 | 63 | 6.0 | 13.0 | 0.00 | 0.74 | 0.23 | 46 | 1008.9 |
| 20260507181259 | 62 | 302 | 5.0 | 7.0 | 0.00 | 0.23 | 0.23 | 45 | 1025.8 |
| 20260507181204 | 62 | 318 | 3.0 | 13.0 | 0.00 | 0.75 | 0.23 | 48 | 1009.1 |
| 20260507180756 | 61 | 19 | 4.0 | 10.0 | 0.00 | 0.23 | 0.23 | 47 | 1025.6 |
| 20260507180704 | 61 | 22 | 7.0 | 13.0 | 0.00 | 0.75 | 0.23 | 48 | 1009.3 |
| 20260507180253 | 62 | 0 | 7.0 | 10.0 | 0.00 | 0.23 | 0.23 | 50 | 1026.0 |
| 20260507180204 | 62 | 316 | 3.0 | 9.0 | 0.00 | 0.75 | 0.23 | 45 | 1009.3 |
| 20260507175748 | 61 | 340 | 1.0 | 7.0 | 0.00 | 0.23 | 0.23 | 45 | 1026.0 |
| 20260507175706 | 61 | 327 | 3.0 | 13.0 | 0.00 | 0.75 | 0.23 | 44 | 1009.1 |
| 20260507175246 | 62 | 310 | 1.0 | 10.0 | 0.00 | 0.23 | 0.23 | 46 | 1026.0 |
| 20260507175203 | 62 | 343 | 1.0 | 13.0 | 0.00 | 0.75 | 0.23 | 49 | 1009.4 |
| 20260507174743 | 61 | 303 | 0.0 | 8.0 | 0.00 | 0.23 | 0.23 | 56 | 1026.1 |
| 20260507174703 | 61 | 313 | 4.0 | 16.0 | 0.00 | 0.75 | 0.23 | 47 | 1009.2 |
| 20260507174241 | 61 | 330 | 5.0 | 11.0 | 0.00 | 0.23 | 0.23 | 46 | 1026.0 |
| 20260507174204 | 62 | 352 | 5.0 | 16.0 | 0.00 | 0.75 | 0.23 | 48 | 1009.4 |
| 20260507173739 | 61 | 238 | 0.0 | 7.0 | 0.00 | 0.23 | 0.23 | 46 | 1026.1 |
| 20260507173704 | 61 | 280 | 2.0 | 14.0 | 0.00 | 0.75 | 0.23 | 45 | 1009.4 |
| 20260507173235 | 61 | 297 | 0.0 | 7.0 | 0.00 | 0.23 | 0.23 | 49 | 1026.2 |
| 20260507172731 | 61 | 23 | 4.0 | 7.0 | 0.00 | 0.23 | 0.23 | 49 | 1026.3 |
| 20260507172704 | 61 | 318 | 4.0 | 13.0 | 0.00 | 0.75 | 0.23 | 50 | 1009.5 |
| 20260507172223 | 61 | 308 | 9.0 | 13.0 | 0.00 | 0.23 | 0.23 | 46 | 1026.3 |
| 20260507172203 | 61 | 310 | 3.0 | 13.0 | 0.00 | 0.75 | 0.23 | 50 | 1009.7 |
| 20260507171723 | 61 | 23 | 5.0 | 10.0 | 0.00 | 0.23 | 0.23 | 48 | 1026.7 |
| 20260507171220 | 61 | 1 | 2.0 | 8.0 | 0.00 | 0.23 | 0.23 | 50 | 1026.9 |
| 20260507171204 | 61 | 0 | 3.0 | 9.0 | 0.00 | 0.75 | 0.23 | 48 | 1010.1 |
| 20260507170717 | 61 | 348 | 1.0 | 3.0 | 0.00 | 0.23 | 0.23 | 54 | 1026.6 |
| 20260507170214 | 60 | 333 | 2.0 | 3.0 | 0.00 | 0.23 | 0.23 | 47 | 1026.6 |
| 20260507170204 | 61 | 345 | 2.0 | 7.0 | 0.00 | 0.75 | 0.23 | 50 | 1010.0 |
| 20260507165709 | 59 | 39 | 0.0 | 5.0 | 0.00 | 0.23 | 0.23 | 60 | 1026.9 |
| 20260507165704 | 59 | 14 | 2.0 | 8.0 | 0.00 | 0.75 | 0.23 | 55 | 1010.3 |
| 20260507165206 | 59 | 316 | 3.0 | 7.0 | 0.00 | 0.23 | 0.23 | 53 | 1027.0 |
| 20260507165204 | 59 | 331 | 3.0 | 13.0 | 0.00 | 0.75 | 0.23 | 54 | 1010.3 |
| 20260507164703 | 59 | 43 | 3.0 | 14.0 | 0.00 | 0.75 | 0.23 | 53 | 1010.6 |
| 20260507164202 | 60 | 24 | 5.0 | 14.0 | 0.00 | 0.75 | 0.23 | 52 | 1010.5 |
| 20260507164200 | 60 | 30 | 5.0 | 14.0 | 0.00 | 0.23 | 0.23 | 51 | 1027.1 |
| 20260507163704 | 59 | 269 | 1.0 | 7.0 | 0.00 | 0.75 | 0.23 | 53 | 1010.4 |
| 20260507163656 | 60 | 352 | 0.0 | 3.0 | 0.00 | 0.23 | 0.23 | 55 | 1027.0 |
| 20260507163203 | 58 | 70 | 3.0 | 7.0 | 0.00 | 0.75 | 0.23 | 57 | 1010.6 |
| 20260507163154 | 58 | 87 | 5.0 | 7.0 | 0.00 | 0.23 | 0.23 | 55 | 1027.1 |
| 20260507162703 | 58 | 85 | 3.0 | 12.0 | 0.00 | 0.75 | 0.23 | 57 | 1010.8 |
| 20260507162650 | 58 | 10 | 0.0 | 7.0 | 0.00 | 0.23 | 0.23 | 56 | 1027.5 |
| 20260507162204 | 58 | 58 | 4.0 | 14.0 | 0.00 | 0.75 | 0.23 | 57 | 1010.9 |
| 20260507162146 | 58 | 69 | 6.0 | 10.0 | 0.00 | 0.23 | 0.23 | 59 | 1027.6 |
| 20260507161703 | 58 | 351 | 6.0 | 16.0 | 0.00 | 0.75 | 0.23 | 57 | 1010.9 |
| 20260507161642 | 58 | 323 | 2.0 | 13.0 | 0.00 | 0.23 | 0.23 | 59 | 1027.6 |
| 20260507161203 | 58 | 24 | 3.0 | 12.0 | 0.00 | 0.75 | 0.23 | 58 | 1010.9 |
| 20260507161139 | 58 | 32 | 4.0 | 11.0 | 0.00 | 0.23 | 0.23 | 57 | 1027.6 |
| 20260507160635 | 58 | 80 | 4.0 | 10.0 | 0.00 | 0.23 | 0.23 | 57 | 1027.6 |
| 20260507160203 | 58 | 23 | 5.0 | 14.0 | 0.00 | 0.76 | 0.23 | 59 | 1011.0 |
| 20260507160132 | 58 | 22 | 10.0 | 14.0 | 0.00 | 0.23 | 0.23 | 58 | 1027.6 |
| 20260507155705 | 58 | 57 | 2.0 | 12.0 | 0.00 | 0.77 | 0.23 | 62 | 1010.9 |
| 20260507155627 | 58 | 334 | 1.0 | 5.0 | 0.00 | 0.23 | 0.23 | 63 | 1027.6 |
| 20260507155204 | 58 | 351 | 2.0 | 9.0 | 0.00 | 0.77 | 0.23 | 65 | 1010.9 |
| 20260507155119 | 58 | 26 | 0.0 | 5.0 | 0.00 | 0.23 | 0.23 | 68 | 1027.6 |
| 20260507154703 | 58 | 37 | 2.0 | 12.0 | 0.00 | 0.79 | 0.23 | 64 | 1010.9 |
| 20260507154615 | 58 | 9 | 0.0 | 11.0 | 0.00 | 0.23 | 0.23 | 65 | 1027.6 |
| 20260507154203 | 57 | 328 | 2.0 | 9.0 | 0.00 | 0.80 | 0.23 | 63 | 1010.9 |
| 20260507154112 | 57 | 327 | 2.0 | 10.0 | 0.00 | 0.23 | 0.23 | 63 | 1027.5 |
| 20260507153703 | 57 | 0 | 3.0 | 12.0 | 0.00 | 0.81 | 0.23 | 63 | 1011.1 |
| 20260507153608 | 57 | 340 | 2.0 | 8.0 | 0.00 | 0.23 | 0.23 | 62 | 1027.7 |
| 20260507153204 | 57 | 35 | 3.0 | 12.0 | 0.00 | 0.82 | 0.23 | 65 | 1011.2 |
| 20260507153105 | 57 | 47 | 3.0 | 5.0 | 0.00 | 0.23 | 0.23 | 66 | 1027.8 |
| 20260507152703 | 57 | 314 | 2.0 | 9.0 | 0.00 | 0.83 | 0.23 | 64 | 1011.4 |
| 20260507152601 | 57 | 321 | 3.0 | 8.0 | 0.00 | 0.23 | 0.23 | 63 | 1028.1 |
| 20260507152057 | 57 | 11 | 3.0 | 8.0 | 0.00 | 0.23 | 0.23 | 63 | 1028.1 |
| 20260507151704 | 57 | 82 | 1.0 | 5.0 | 0.00 | 0.84 | 0.23 | 63 | 1011.5 |
| 20260507151554 | 57 | 349 | 0.0 | 2.0 | 0.00 | 0.23 | 0.23 | 63 | 1028.1 |
| 20260507151203 | 56 | 73 | 1.0 | 8.0 | 0.00 | 0.85 | 0.23 | 65 | 1011.5 |
| 20260507151052 | 57 | 62 | 1.0 | 5.0 | 0.00 | 0.23 | 0.23 | 64 | 1028.1 |
| 20260507150549 | 57 | 345 | 0.0 | 7.0 | 0.00 | 0.23 | 0.23 | 65 | 1028.4 |
| 20260507150203 | 56 | 21 | 3.0 | 8.0 | 0.00 | 0.88 | 0.23 | 65 | 1011.5 |
| 20260507150045 | 56 | 234 | 1.0 | 8.0 | 0.00 | 0.23 | 0.23 | 64 | 1028.2 |
| 20260507145704 | 57 | 303 | 3.0 | 7.0 | 0.00 | 0.89 | 0.23 | 66 | 1011.7 |
| 20260507145540 | 57 | 309 | 4.0 | 7.0 | 0.00 | 0.23 | 0.23 | 66 | 1028.4 |
| 20260507145204 | 56 | 43 | 3.0 | 7.0 | 0.00 | 0.90 | 0.23 | 65 | 1011.7 |
| 20260507145038 | 56 | 50 | 5.0 | 7.0 | 0.00 | 0.23 | 0.23 | 65 | 1028.4 |
| 20260507144703 | 55 | 3 | 0.0 | 8.0 | 0.00 | 0.91 | 0.23 | 66 | 1011.8 |
| 20260507144534 | 55 | 17 | 0.0 | 5.0 | 0.00 | 0.23 | 0.23 | 66 | 1028.5 |
| 20260507144203 | 54 | 50 | 2.0 | 9.0 | 0.00 | 0.92 | 0.23 | 66 | 1012.1 |
| 20260507144032 | 54 | 18 | 2.0 | 8.0 | 0.00 | 0.23 | 0.23 | 66 | 1028.9 |
| 20260507143703 | 54 | 6 | 1.0 | 9.0 | 0.00 | 0.93 | 0.23 | 69 | 1011.8 |
| 20260507143529 | 54 | 0 | 0.0 | 7.0 | 0.00 | 0.23 | 0.23 | 69 | 1028.5 |
| 20260507143027 | 53 | 38 | 7.0 | 8.0 | 0.00 | 0.23 | 0.23 | 68 | 1028.7 |
| 20260507142703 | 53 | 3 | 5.0 | 12.0 | 0.00 | 0.94 | 0.23 | 69 | 1012.0 |
| 20260507142522 | 54 | 16 | 6.0 | 11.0 | 0.00 | 0.23 | 0.23 | 67 | 1028.7 |
| 20260507142204 | 54 | 324 | 4.0 | 13.0 | 0.00 | 0.94 | 0.23 | 69 | 1012.1 |
| 20260507142018 | 53 | 27 | 4.0 | 10.0 | 0.00 | 0.23 | 0.23 | 68 | 1028.8 |
| 20260507141703 | 54 | 44 | 6.0 | 13.0 | 0.00 | 0.95 | 0.23 | 69 | 1012.2 |
| 20260507141515 | 54 | 21 | 8.0 | 13.0 | 0.00 | 0.23 | 0.23 | 68 | 1028.7 |
| 20260507141203 | 54 | 336 | 5.0 | 16.0 | 0.00 | 0.96 | 0.23 | 67 | 1012.0 |
| 20260507141007 | 54 | 44 | 3.0 | 13.0 | 0.00 | 0.23 | 0.23 | 66 | 1028.8 |
| 20260507140704 | 54 | 336 | 7.0 | 16.0 | 0.00 | 0.97 | 0.23 | 67 | 1012.0 |
| 20260507140503 | 54 | 65 | 7.0 | 10.0 | 0.00 | 0.23 | 0.23 | 66 | 1028.7 |
| 20260507140203 | 55 | 358 | 7.0 | 14.0 | 0.00 | 0.98 | 0.23 | 67 | 1011.9 |
| 20260507140000 | 55 | 41 | 7.0 | 14.0 | 0.00 | 0.23 | 0.23 | 67 | 1028.6 |
| 20260507135703 | 55 | 30 | 3.0 | 13.0 | 0.00 | 0.99 | 0.23 | 67 | 1012.0 |
| 20260507135457 | 55 | 348 | 4.0 | 11.0 | 0.00 | 0.23 | 0.23 | 65 | 1028.7 |
| 20260507134954 | 55 | 11 | 11.0 | 16.0 | 0.00 | 0.23 | 0.23 | 71 | 1028.7 |
| 20260507134703 | 54 | 11 | 5.0 | 13.0 | 0.00 | 0.99 | 0.23 | 71 | 1012.1 |
| 20260507134450 | 54 | 346 | 9.0 | 13.0 | 0.00 | 0.23 | 0.23 | 72 | 1028.7 |
| 20260507134204 | 53 | 15 | 2.0 | 9.0 | 0.00 | 0.99 | 0.23 | 75 | 1012.2 |
| 20260507133946 | 53 | 3 | 1.0 | 5.0 | 0.00 | 0.23 | 0.23 | 74 | 1028.7 |
| 20260507133704 | 52 | 352 | 5.0 | 12.0 | 0.00 | 0.99 | 0.23 | 77 | 1012.2 |
| 20260507133443 | 52 | 18 | 7.0 | 10.0 | 0.00 | 0.23 | 0.23 | 77 | 1028.9 |
| 20260507133203 | 51 | 325 | 3.0 | 7.0 | 0.00 | 0.99 | 0.23 | 88 | 1012.4 |
| 20260507132941 | 51 | 339 | 5.0 | 7.0 | 0.00 | 0.23 | 0.23 | 89 | 1029.0 |
| 20260507132437 | 51 | 312 | 0.0 | 2.0 | 0.00 | 0.23 | 0.23 | 93 | 1029.0 |
| 20260507132204 | 51 | 291 | 0.0 | 3.0 | 0.00 | 0.99 | 0.23 | 98 | 1012.3 |
| 20260507131933 | 50 | 347 | 0.0 | 0.0 | 0.00 | 0.23 | 0.23 | 99 | 1029.0 |
| 20260507131703 | 49 | 321 | 0.0 | 5.0 | 0.00 | 0.99 | 0.23 | 99 | 1012.2 |
| 20260507131431 | 48 | 323 | 0.0 | 3.0 | 0.00 | 0.23 | 0.23 | 99 | 1028.9 |
| 20260507131203 | 48 | 338 | 1.0 | 8.0 | 0.00 | 0.99 | 0.23 | 99 | 1012.2 |
| 20260507130928 | 48 | 346 | 0.0 | 8.0 | 0.00 | 0.23 | 0.23 | 99 | 1028.9 |
| 20260507130703 | 48 | 354 | 1.0 | 8.0 | 0.00 | 0.99 | 0.23 | 99 | 1012.3 |
| 20260507130425 | 47 | 323 | 0.0 | 8.0 | 0.00 | 0.23 | 0.23 | 99 | 1028.8 |
| 20260507130203 | 48 | 0 | 1.0 | 9.0 | 0.00 | 0.99 | 0.23 | 99 | 1012.2 |
| 20260507125924 | 47 | 332 | 0.0 | 3.0 | 0.00 | 0.23 | 0.23 | 99 | 1028.8 |
| 20260507125421 | 47 | 352 | 3.0 | 10.0 | 0.00 | 0.23 | 0.23 | 99 | 1028.6 |
| 20260507125204 | 47 | 307 | 0.0 | 7.0 | 0.00 | 0.99 | 0.23 | 99 | 1012.0 |
| 20260507124918 | 47 | 349 | 4.0 | 5.0 | 0.00 | 0.23 | 0.23 | 99 | 1028.8 |
| 20260507124704 | 47 | 316 | 1.0 | 8.0 | 0.00 | 0.99 | 0.23 | 99 | 1012.1 |
| 20260507124414 | 48 | 345 | 5.0 | 7.0 | 0.00 | 0.23 | 0.23 | 99 | 1028.7 |
| 20260507124203 | 48 | 332 | 0.0 | 3.0 | 0.00 | 0.99 | 0.23 | 99 | 1012.0 |
| 20260507123913 | 47 | 303 | 0.0 | 0.0 | 0.00 | 0.23 | 0.23 | 99 | 1028.8 |
| 20260507123703 | 47 | 329 | 0.0 | 7.0 | 0.00 | 0.99 | 0.23 | 99 | 1012.2 |
| 20260507123410 | 47 | 311 | 0.0 | 0.0 | 0.00 | 0.23 | 0.23 | 99 | 1028.9 |
| 20260507123205 | 47 | 318 | 1.0 | 8.0 | 0.00 | 0.99 | 0.23 | 99 | 1012.3 |
| 20260507122906 | 47 | 334 | 4.0 | 7.0 | 0.00 | 0.23 | 0.23 | 99 | 1028.9 |
| 20260507122705 | 47 | 355 | 2.0 | 9.0 | 0.00 | 0.99 | 0.23 | 99 | 1012.1 |
| 20260507122401 | 47 | 316 | 0.0 | 2.0 | 0.00 | 0.23 | 0.23 | 99 | 1029.0 |
| 20260507121858 | 47 | 330 | 0.0 | 5.0 | 0.00 | 0.23 | 0.23 | 99 | 1028.9 |
| 20260507121704 | 48 | 335 | 0.0 | 7.0 | 0.00 | 0.99 | 0.23 | 99 | 1012.2 |
| 20260507121353 | 47 | 334 | 0.0 | 5.0 | 0.00 | 0.23 | 0.23 | 99 | 1029.0 |
| 20260507121203 | 47 | 324 | 1.0 | 8.0 | 0.00 | 0.99 | 0.23 | 99 | 1012.2 |
| 20260507120850 | 47 | 331 | 0.0 | 7.0 | 0.00 | 0.23 | 0.23 | 99 | 1028.7 |
| 20260507120704 | 48 | 348 | 1.0 | 8.0 | 0.00 | 0.99 | 0.23 | 99 | 1012.1 |
| 20260507120346 | 48 | 295 | 0.0 | 2.0 | 0.00 | 0.23 | 0.23 | 99 | 1028.6 |
| 20260507120204 | 48 | 325 | 0.0 | 5.0 | 0.00 | 0.99 | 0.23 | 99 | 1012.1 |
| 20260507115843 | 47 | 305 | 0.0 | 3.0 | 0.00 | 0.23 | 0.23 | 99 | 1028.7 |
| 20260507115703 | 48 | 325 | 1.0 | 5.0 | 0.00 | 0.99 | 0.23 | 99 | 1011.9 |
| 20260507115338 | 49 | 309 | 0.0 | 0.0 | 0.00 | 0.23 | 0.23 | 99 | 1028.8 |
| 20260507115203 | 49 | 325 | 0.0 | 0.0 | 0.00 | 0.99 | 0.23 | 99 | 1012.0 |
| 20260507114834 | 48 | 302 | 0.0 | 0.0 | 0.00 | 0.23 | 0.23 | 99 | 1028.6 |
| 20260507114707 | 48 | 302 | 0.0 | 0.0 | 0.00 | 0.99 | 0.23 | 99 | 1012.1 |
| 20260507114332 | 48 | 316 | 0.0 | 0.0 | 0.00 | 0.23 | 0.23 | 99 | 1028.7 |
| 20260507113829 | 48 | 314 | 0.0 | 0.0 | 0.00 | 0.23 | 0.23 | 99 | 1028.6 |
| 20260507113703 | 49 | 309 | 0.0 | 0.0 | 0.00 | 0.99 | 0.23 | 99 | 1011.9 |
| 20260507113326 | 48 | 307 | 0.0 | 0.0 | 0.00 | 0.23 | 0.23 | 99 | 1028.6 |
| 20260507113203 | 49 | 307 | 0.0 | 0.0 | 0.00 | 0.99 | 0.23 | 99 | 1011.8 |
| 20260507112824 | 48 | 308 | 0.0 | 0.0 | 0.00 | 0.23 | 0.23 | 99 | 1028.5 |
| 20260507112320 | 48 | 303 | 0.0 | 0.0 | 0.00 | 0.23 | 0.23 | 99 | 1028.4 |
| 20260507112204 | 48 | 234 | 0.0 | 0.0 | 0.00 | 0.99 | 0.23 | 99 | 1011.8 |
| 20260507111818 | 48 | 290 | 0.0 | 0.0 | 0.00 | 0.23 | 0.23 | 99 | 1028.5 |
| 20260507111314 | 48 | 286 | 0.0 | 0.0 | 0.00 | 0.23 | 0.23 | 99 | 1028.6 |
| 20260507111203 | 48 | 286 | 0.0 | 1.0 | 0.00 | 0.99 | 0.23 | 99 | 1011.8 |
| 20260507110811 | 48 | 308 | 0.0 | 0.0 | 0.00 | 0.23 | 0.23 | 99 | 1028.3 |
| 20260507110703 | 48 | 314 | 0.0 | 0.0 | 0.00 | 0.99 | 0.23 | 99 | 1011.8 |
| 20260507110307 | 49 | 316 | 0.0 | 0.0 | 0.00 | 0.23 | 0.23 | 99 | 1028.2 |
| 20260507110204 | 49 | 316 | 0.0 | 0.0 | 0.00 | 0.99 | 0.23 | 99 | 1011.6 |
| 20260507105804 | 49 | 304 | 0.0 | 0.0 | 0.00 | 0.23 | 0.23 | 99 | 1028.3 |
| 20260507105704 | 49 | 307 | 0.0 | 0.0 | 0.00 | 0.99 | 0.23 | 99 | 1011.6 |
| 20260507105300 | 49 | 312 | 0.0 | 0.0 | 0.00 | 0.23 | 0.23 | 99 | 1028.1 |
| 20260507105205 | 49 | 312 | 0.0 | 0.0 | 0.00 | 0.99 | 0.23 | 99 | 1011.5 |
| 20260507104758 | 50 | 312 | 0.0 | 0.0 | 0.00 | 0.23 | 0.23 | 99 | 1027.9 |
| 20260507104704 | 49 | 311 | 0.0 | 0.0 | 0.00 | 0.99 | 0.23 | 99 | 1011.4 |
| 20260507104254 | 49 | 312 | 0.0 | 0.0 | 0.00 | 0.23 | 0.23 | 99 | 1028.1 |
| 20260507103750 | 49 | 315 | 0.0 | 0.0 | 0.00 | 0.23 | 0.23 | 99 | 1028.2 |
| 20260507103703 | 49 | 315 | 0.0 | 0.0 | 0.00 | 0.99 | 0.23 | 99 | 1011.3 |
| 20260507103246 | 49 | 315 | 0.0 | 0.0 | 0.00 | 0.23 | 0.23 | 99 | 1027.8 |
| 20260507103203 | 49 | 315 | 0.0 | 0.0 | 0.00 | 0.99 | 0.23 | 99 | 1011.1 |
| 20260507102743 | 49 | 315 | 0.0 | 0.0 | 0.00 | 0.23 | 0.23 | 99 | 1027.7 |
| 20260507102705 | 49 | 315 | 0.0 | 0.0 | 0.00 | 0.99 | 0.23 | 99 | 1010.9 |
| 20260507102239 | 49 | 315 | 0.0 | 0.0 | 0.00 | 0.23 | 0.23 | 99 | 1027.7 |
| 20260507102203 | 49 | 315 | 0.0 | 0.0 | 0.00 | 0.99 | 0.23 | 99 | 1010.8 |
| 20260507101735 | 49 | 315 | 0.0 | 0.0 | 0.00 | 0.23 | 0.23 | 99 | 1027.5 |
| 20260507101704 | 49 | 315 | 0.0 | 0.0 | 0.00 | 0.99 | 0.23 | 99 | 1010.9 |
| 20260507101231 | 49 | 315 | 0.0 | 0.0 | 0.00 | 0.23 | 0.23 | 99 | 1027.6 |
| 20260507101204 | 49 | 315 | 0.0 | 1.0 | 0.00 | 0.99 | 0.23 | 99 | 1010.9 |
| 20260507100728 | 49 | 287 | 0.0 | 0.0 | 0.00 | 0.23 | 0.23 | 99 | 1027.5 |
| 20260507100704 | 49 | 287 | 0.0 | 0.0 | 0.00 | 0.99 | 0.23 | 99 | 1010.8 |
| 20260507100227 | 48 | 287 | 0.0 | 0.0 | 0.00 | 0.23 | 0.23 | 99 | 1027.7 |
| 20260507100205 | 48 | 287 | 0.0 | 0.0 | 0.00 | 0.99 | 0.23 | 99 | 1011.0 |
| 20260507095724 | 48 | 287 | 0.0 | 0.0 | 0.00 | 0.23 | 0.23 | 99 | 1027.3 |
| 20260507095703 | 48 | 287 | 0.0 | 0.0 | 0.00 | 0.99 | 0.23 | 99 | 1010.8 |
| 20260507095221 | 48 | 307 | 0.0 | 0.0 | 0.00 | 0.23 | 0.23 | 99 | 1027.3 |
| 20260507095204 | 48 | 307 | 0.0 | 0.0 | 0.00 | 0.99 | 0.23 | 99 | 1010.8 |
| 20260507094718 | 48 | 307 | 0.0 | 0.0 | 0.00 | 0.23 | 0.23 | 99 | 1027.2 |
| 20260507094704 | 48 | 307 | 0.0 | 0.0 | 0.00 | 0.99 | 0.23 | 99 | 1010.7 |
| 20260507094215 | 48 | 307 | 0.0 | 0.0 | 0.00 | 0.23 | 0.23 | 99 | 1027.3 |
| 20260507094205 | 48 | 307 | 0.0 | 0.0 | 0.00 | 0.99 | 0.23 | 99 | 1010.6 |
| 20260507093711 | 48 | 307 | 0.0 | 0.0 | 0.00 | 0.23 | 0.23 | 99 | 1027.2 |
| 20260507093705 | 48 | 305 | 0.0 | 0.0 | 0.00 | 0.99 | 0.23 | 99 | 1010.5 |
| 20260507093210 | 48 | 315 | 0.0 | 0.0 | 0.00 | 0.23 | 0.23 | 99 | 1027.2 |
| 20260507093203 | 48 | 317 | 0.0 | 5.0 | 0.00 | 0.99 | 0.23 | 99 | 1010.4 |
| 20260507092707 | 48 | 331 | 0.0 | 5.0 | 0.00 | 0.23 | 0.23 | 99 | 1027.0 |
| 20260507092704 | 48 | 306 | 0.0 | 5.0 | 0.00 | 0.99 | 0.23 | 99 | 1010.3 |
| 20260507092204 | 48 | 309 | 0.0 | 0.0 | 0.00 | 0.99 | 0.23 | 99 | 1010.4 |
| 20260507091705 | 48 | 321 | 0.0 | 0.0 | 0.00 | 0.99 | 0.23 | 99 | 1010.3 |
| 20260507091700 | 48 | 321 | 0.0 | 0.0 | 0.00 | 0.23 | 0.23 | 99 | 1026.9 |
| 20260507091205 | 49 | 297 | 0.0 | 0.0 | 0.00 | 0.99 | 0.23 | 99 | 1010.5 |
| 20260507091156 | 48 | 297 | 0.0 | 0.0 | 0.00 | 0.23 | 0.23 | 99 | 1027.2 |
| 20260507090652 | 48 | 338 | 0.0 | 0.0 | 0.00 | 0.23 | 0.23 | 99 | 1027.1 |
| 20260507090149 | 48 | 338 | 0.0 | 0.0 | 0.00 | 0.23 | 0.23 | 99 | 1027.2 |
| 20260507085646 | 48 | 338 | 0.0 | 0.0 | 0.00 | 0.23 | 0.23 | 99 | 1026.8 |
| 20260507085203 | 48 | 338 | 0.0 | 0.0 | 0.00 | 0.99 | 0.23 | 99 | 1010.1 |
| 20260507085143 | 48 | 338 | 0.0 | 0.0 | 0.00 | 0.23 | 0.23 | 99 | 1026.9 |
| 20260507084704 | 48 | 338 | 0.0 | 0.0 | 0.00 | 0.99 | 0.23 | 99 | 1010.1 |
| 20260507084640 | 48 | 338 | 0.0 | 0.0 | 0.00 | 0.23 | 0.23 | 99 | 1026.8 |
| 20260507084205 | 48 | 338 | 0.0 | 0.0 | 0.00 | 0.99 | 0.23 | 99 | 1010.2 |
| 20260507084136 | 48 | 338 | 0.0 | 0.0 | 0.00 | 0.23 | 0.23 | 99 | 1026.8 |
| 20260507083704 | 48 | 338 | 0.0 | 0.0 | 0.00 | 0.99 | 0.23 | 99 | 1010.2 |
| 20260507083633 | 48 | 338 | 0.0 | 0.0 | 0.00 | 0.23 | 0.23 | 99 | 1026.9 |
| 20260507083205 | 49 | 338 | 0.0 | 0.0 | 0.00 | 0.99 | 0.23 | 99 | 1010.3 |
| 20260507083130 | 49 | 338 | 0.0 | 0.0 | 0.00 | 0.23 | 0.23 | 99 | 1026.9 |
| 20260507082704 | 49 | 338 | 0.0 | 0.0 | 0.00 | 0.99 | 0.23 | 99 | 1010.4 |
| 20260507082625 | 49 | 338 | 0.0 | 0.0 | 0.00 | 0.23 | 0.23 | 99 | 1027.0 |
| 20260507082204 | 49 | 338 | 0.0 | 0.0 | 0.00 | 0.99 | 0.23 | 99 | 1010.3 |
| 20260507082122 | 49 | 338 | 0.0 | 0.0 | 0.00 | 0.23 | 0.23 | 99 | 1027.0 |
| 20260507081704 | 49 | 338 | 0.0 | 0.0 | 0.00 | 0.99 | 0.23 | 99 | 1010.0 |
| 20260507081619 | 49 | 338 | 0.0 | 0.0 | 0.00 | 0.23 | 0.23 | 99 | 1026.6 |
| 20260507081204 | 49 | 338 | 0.0 | 0.0 | 0.00 | 0.99 | 0.23 | 99 | 1010.2 |
| 20260507081115 | 49 | 338 | 0.0 | 0.0 | 0.00 | 0.23 | 0.23 | 99 | 1026.9 |